createdAt,value
2023-03-11T00:01:47.822Z,99721.06
2023-03-11T00:04:15.733Z,99686.25
2023-03-11T00:06:43.768Z,99724.28
2023-03-11T00:09:11.665Z,99723.28
2023-03-11T00:11:39.671Z,99700.03
2023-03-11T00:14:09.017Z,99722.28
2023-03-11T00:16:37.041Z,99546.94
2023-03-11T00:19:04.869Z,99721.19
2023-03-11T00:21:32.777Z,99698.13
2023-03-11T00:24:03.705Z,99715.13
2023-03-11T00:26:31.576Z,99719.53
2023-03-11T00:28:59.614Z,99717.84
2023-03-11T00:31:28.937Z,99721.19
2023-03-11T00:33:57.328Z,99723.75
2023-03-11T00:36:31.545Z,99711.75
2023-03-11T00:38:59.991Z,99714.91
2023-03-11T00:41:27.855Z,99715.69
2023-03-11T00:43:55.854Z,99713.00
2023-03-11T00:46:23.784Z,99685.69
2023-03-11T00:48:53.326Z,99705.03
2023-03-11T00:51:21.193Z,99659.72
2023-03-11T00:53:49.254Z,99704.81
2023-03-11T00:56:17.843Z,99703.81
2023-03-11T00:58:46.204Z,99705.34
2023-03-11T01:01:17.373Z,99696.59
2023-03-11T01:03:46.117Z,99630.31
2023-03-11T01:06:15.498Z,99697.81
2023-03-11T01:08:43.433Z,99690.81
2023-03-11T01:11:11.391Z,99696.59
2023-03-11T01:13:40.356Z,99689.59
2023-03-11T01:16:09.380Z,99700.25
2023-03-11T01:18:37.468Z,99684.16
2023-03-11T01:21:05.984Z,99648.88
2023-03-11T01:23:35.192Z,99668.31
2023-03-11T01:26:03.051Z,99673.41
2023-03-11T01:28:31.045Z,99635.44
2023-03-11T01:30:58.929Z,99642.53
2023-03-11T01:33:26.776Z,99701.00
2023-03-11T01:35:54.802Z,99635.44
2023-03-11T01:38:22.748Z,99667.06
2023-03-11T01:40:53.230Z,99671.16
2023-03-11T01:43:47.736Z,99676.16
2023-03-11T01:46:18.415Z,99640.66
2023-03-11T01:48:48.819Z,99675.16
2023-03-11T01:51:20.483Z,99670.97
2023-03-11T01:53:48.579Z,99680.50
2023-03-11T01:56:18.185Z,99672.63
2023-03-11T01:58:50.158Z,99672.16
2023-03-11T02:01:18.294Z,99680.47
2023-03-11T02:03:46.345Z,99592.00
2023-03-11T02:06:17.738Z,99673.38
2023-03-11T02:08:46.968Z,99676.59
2023-03-11T02:11:20.592Z,99501.91
2023-03-11T02:13:50.164Z,99668.16
2023-03-11T02:16:18.494Z,99668.03
2023-03-11T02:18:46.513Z,99541.97
2023-03-11T02:21:25.202Z,99664.72
2023-03-11T02:24:01.080Z,99526.53
2023-03-11T02:26:35.994Z,99660.59
2023-03-11T02:29:07.677Z,99547.13
2023-03-11T02:31:38.420Z,99661.69
2023-03-11T02:34:09.802Z,99661.47
2023-03-11T02:36:40.328Z,99659.03
2023-03-11T02:39:09.765Z,99601.94
2023-03-11T02:41:40.189Z,99664.25
2023-03-11T02:44:12.110Z,99539.78
2023-03-11T02:46:43.432Z,99653.38
2023-03-11T02:49:12.140Z,99663.56
2023-03-11T02:51:39.976Z,99661.03
2023-03-11T02:54:08.135Z,99663.69
2023-03-11T02:56:35.943Z,99657.81
2023-03-11T02:59:03.781Z,99616.31
2023-03-11T03:01:33.158Z,99499.56
2023-03-11T03:04:01.037Z,99652.81
2023-03-11T03:06:29.340Z,99603.00
2023-03-11T03:08:57.605Z,99648.41
2023-03-11T03:11:25.456Z,99648.63
2023-03-11T03:13:53.293Z,99650.31
2023-03-11T03:16:21.938Z,99652.31
2023-03-11T03:18:51.636Z,99651.75
2023-03-11T03:21:19.519Z,99643.56
2023-03-11T03:23:47.764Z,99640.44
2023-03-11T03:26:15.660Z,99651.00
2023-03-11T03:28:43.528Z,99641.91
2023-03-11T03:31:12.461Z,99618.03
2023-03-11T03:33:40.352Z,99635.53
2023-03-11T03:36:12.087Z,99632.44
2023-03-11T03:38:40.526Z,99561.78
2023-03-11T03:41:08.406Z,99637.31
2023-03-11T03:43:36.244Z,99630.88
2023-03-11T03:46:05.720Z,99634.66
2023-03-11T03:48:33.945Z,99624.53
2023-03-11T03:51:05.528Z,99626.31
2023-03-11T03:53:37.150Z,99568.88
2023-03-11T03:56:06.035Z,99589.03
2023-03-11T03:58:34.044Z,99606.44
2023-03-11T04:01:02.096Z,99616.66
2023-03-11T04:03:30.182Z,99613.44
2023-03-11T04:06:07.603Z,99524.28
2023-03-11T04:08:37.205Z,99601.09
2023-03-11T04:11:05.476Z,99519.69
2023-03-11T04:13:33.644Z,99598.84
2023-03-11T04:16:03.810Z,99595.53
2023-03-11T04:18:31.704Z,99595.75
2023-03-11T04:20:59.753Z,99569.22
2023-03-11T04:23:27.603Z,99590.75
2023-03-11T04:25:56.995Z,99568.44
2023-03-11T04:28:25.002Z,99590.19
2023-03-11T04:30:53.004Z,99583.59
2023-03-11T04:33:21.424Z,99581.94
2023-03-11T04:35:49.441Z,99576.16
2023-03-11T04:38:17.452Z,99575.56
2023-03-11T04:40:45.359Z,99572.03
2023-03-11T04:43:14.636Z,99551.53
2023-03-11T04:45:43.476Z,99565.50
2023-03-11T04:48:11.385Z,99573.50
2023-03-11T04:50:39.344Z,99574.38
2023-03-11T04:53:07.191Z,99464.44
2023-03-11T04:55:35.023Z,99572.59
2023-03-11T04:58:02.995Z,99499.13
2023-03-11T05:00:32.205Z,99509.66
2023-03-11T05:03:00.104Z,99557.06
2023-03-11T05:05:28.175Z,99553.72
2023-03-11T05:07:56.039Z,99531.56
2023-03-11T05:10:23.967Z,99564.06
2023-03-11T05:12:52.399Z,99557.28
2023-03-11T05:15:20.638Z,99559.06
2023-03-11T05:17:49.907Z,99417.81
2023-03-11T05:20:18.261Z,99530.78
2023-03-11T05:22:46.242Z,99552.38
2023-03-11T05:25:14.180Z,99562.69
2023-03-11T05:27:42.079Z,99556.72
2023-03-11T05:30:11.189Z,99555.00
2023-03-11T05:32:39.206Z,99561.00
2023-03-11T05:35:09.722Z,99534.75
2023-03-11T05:37:39.256Z,99560.53
2023-03-11T05:40:08.599Z,99541.06
2023-03-11T05:42:36.631Z,99496.06
2023-03-11T05:45:05.008Z,99559.09
2023-03-11T05:47:32.950Z,99542.97
2023-03-11T05:50:01.020Z,99552.50
2023-03-11T05:52:32.738Z,99552.63
2023-03-11T05:55:00.714Z,99545.16
2023-03-11T05:57:28.650Z,99501.75
2023-03-11T05:59:56.493Z,99484.91
2023-03-11T06:02:24.524Z,99451.88
2023-03-11T06:04:52.642Z,99545.22
2023-03-11T06:07:20.512Z,99543.84
2023-03-11T06:09:51.107Z,99539.72
2023-03-11T06:12:19.251Z,99539.16
2023-03-11T06:14:47.344Z,99519.84
2023-03-11T06:17:15.232Z,99534.44
2023-03-11T06:19:43.216Z,99538.00
2023-03-11T06:22:11.049Z,99536.53
2023-03-11T06:24:39.040Z,99527.19
2023-03-11T06:27:09.397Z,99500.78
2023-03-11T06:29:37.235Z,99517.44
2023-03-11T06:32:05.389Z,99527.19
2023-03-11T06:34:33.375Z,99511.91
2023-03-11T06:37:01.311Z,99535.06
2023-03-11T06:39:29.335Z,99539.47
2023-03-11T06:41:57.224Z,99536.25
2023-03-11T06:44:26.535Z,99530.25
2023-03-11T06:46:57.609Z,99514.81
2023-03-11T06:49:25.593Z,99546.13
2023-03-11T06:51:53.532Z,99463.91
2023-03-11T06:54:21.444Z,99540.41
2023-03-11T06:56:49.496Z,99541.91
2023-03-11T06:59:17.359Z,99538.94
2023-03-11T07:01:46.900Z,99544.94
2023-03-11T07:04:14.934Z,99549.09
2023-03-11T07:06:43.351Z,99509.41
2023-03-11T07:09:11.283Z,99541.16
2023-03-11T07:11:39.323Z,99525.09
2023-03-11T07:14:07.260Z,99517.97
2023-03-11T07:16:35.353Z,99539.88
2023-03-11T07:19:04.727Z,99517.72
2023-03-11T07:21:34.025Z,99539.03
2023-03-11T07:24:03.656Z,99531.63
2023-03-11T07:26:33.356Z,99514.63
2023-03-11T07:29:01.914Z,99529.25
2023-03-11T07:31:31.383Z,99533.69
2023-03-11T07:34:00.576Z,99538.38
2023-03-11T07:36:30.550Z,99493.59
2023-03-11T07:39:04.223Z,99528.66
2023-03-11T07:41:34.270Z,99502.13
2023-03-11T07:44:03.741Z,99526.56
2023-03-11T07:46:32.307Z,99442.06
2023-03-11T07:49:01.647Z,99523.00
2023-03-11T07:51:33.093Z,99517.50
2023-03-11T07:54:02.032Z,99518.84
2023-03-11T07:56:32.051Z,99516.19
2023-03-11T07:59:01.671Z,99519.53
2023-03-11T08:01:36.324Z,99510.94
2023-03-11T08:04:06.172Z,99512.84
2023-03-11T08:06:37.080Z,99524.91
2023-03-11T08:09:07.267Z,99519.91
2023-03-11T08:11:35.308Z,99480.22
2023-03-11T08:14:03.662Z,99517.13
2023-03-11T08:16:31.960Z,99512.38
2023-03-11T08:18:59.841Z,99505.94
2023-03-11T08:21:30.167Z,99503.94
2023-03-11T08:24:01.193Z,99505.44
2023-03-11T08:26:29.996Z,99497.97
2023-03-11T08:28:58.547Z,99498.47
2023-03-11T08:31:29.237Z,99516.06
2023-03-11T08:33:59.496Z,99504.16
2023-03-11T08:36:27.664Z,99503.72
2023-03-11T08:38:55.769Z,99500.81
2023-03-11T08:41:25.449Z,99497.09
2023-03-11T08:43:53.715Z,99507.59
2023-03-11T08:46:25.941Z,99503.56
2023-03-11T08:48:54.524Z,99497.03
2023-03-11T08:51:23.609Z,99501.66
2023-03-11T08:53:52.060Z,99499.09
2023-03-11T08:56:20.546Z,99498.38
2023-03-11T08:58:50.968Z,99497.78
2023-03-11T09:01:20.354Z,99497.19
2023-03-11T09:03:48.592Z,99499.09
2023-03-11T09:06:17.830Z,99498.41
2023-03-11T09:08:47.256Z,99490.00
2023-03-11T09:11:17.815Z,99499.72
2023-03-11T09:13:45.668Z,99403.72
2023-03-11T09:16:18.253Z,99486.19
2023-03-11T09:18:46.292Z,99497.94
2023-03-11T09:21:14.141Z,99492.41
2023-03-11T09:23:44.342Z,99442.06
2023-03-11T09:26:12.734Z,99445.88
2023-03-11T09:28:41.490Z,99481.06
2023-03-11T09:31:09.774Z,99480.22
2023-03-11T09:33:40.927Z,99476.88
2023-03-11T09:36:12.933Z,99454.09
2023-03-11T09:38:40.728Z,99469.22
2023-03-11T09:41:19.892Z,99469.06
2023-03-11T09:43:59.084Z,99464.03
2023-03-11T09:46:52.467Z,99468.50
2023-03-11T09:49:29.632Z,99466.28
2023-03-11T09:52:08.004Z,99449.63
2023-03-11T09:54:39.485Z,99306.84
2023-03-11T09:57:10.684Z,99466.75
2023-03-11T09:59:43.683Z,99465.94
2023-03-11T10:02:16.045Z,99412.91
2023-03-11T10:04:53.745Z,99413.28
2023-03-11T10:07:26.694Z,99458.41
2023-03-11T10:09:56.765Z,99423.72
2023-03-11T10:12:45.974Z,99447.88
2023-03-11T10:15:23.336Z,99459.28
2023-03-11T10:18:05.288Z,99462.50
2023-03-11T10:20:43.559Z,99441.78
2023-03-11T10:23:23.474Z,99460.28
2023-03-11T10:26:01.753Z,99455.81
2023-03-11T10:28:34.672Z,99457.03
2023-03-11T10:31:08.428Z,99458.94
2023-03-11T10:33:46.591Z,99452.69
2023-03-11T10:36:24.010Z,99449.25
2023-03-11T10:38:55.184Z,99422.13
2023-03-11T10:41:28.183Z,99422.88
2023-03-11T10:44:01.499Z,99441.66
2023-03-11T10:46:30.714Z,99440.38
2023-03-11T10:48:58.860Z,99406.19
2023-03-11T10:51:33.800Z,99438.94
2023-03-11T10:54:03.614Z,99426.00
2023-03-11T10:56:34.523Z,99437.31
2023-03-11T10:59:03.647Z,99439.06
2023-03-11T11:01:31.932Z,99413.78
2023-03-11T11:04:02.713Z,99432.84
2023-03-11T11:06:33.619Z,99373.16
2023-03-11T11:09:19.500Z,99423.44
2023-03-11T11:12:02.748Z,99419.44
2023-03-11T11:14:47.343Z,99419.00
2023-03-11T11:17:19.304Z,99424.09
2023-03-11T11:19:48.593Z,99424.88
2023-03-11T11:22:20.868Z,99417.28
2023-03-11T11:24:51.564Z,99370.50
2023-03-11T11:27:22.192Z,99405.41
2023-03-11T11:30:12.418Z,99409.72
2023-03-11T11:32:40.549Z,99229.50
2023-03-11T11:35:12.908Z,99382.31
2023-03-11T11:37:45.256Z,99385.88
2023-03-11T11:40:24.520Z,99370.72
2023-03-11T11:42:56.918Z,99346.34
2023-03-11T11:45:31.919Z,99397.97
2023-03-11T11:48:04.339Z,99410.06
2023-03-11T11:50:36.173Z,99362.16
2023-03-11T11:53:16.301Z,99410.78
2023-03-11T11:55:49.477Z,99409.56
2023-03-11T11:58:17.823Z,99406.63
2023-03-11T12:00:57.382Z,99402.47
2023-03-11T12:03:50.168Z,99403.34
2023-03-11T12:06:24.208Z,99400.22
2023-03-11T12:09:05.670Z,99344.22
2023-03-11T12:11:41.901Z,99395.81
2023-03-11T12:14:18.791Z,99394.94
2023-03-11T12:16:57.001Z,99389.69
2023-03-11T12:19:36.961Z,99389.47
2023-03-11T12:22:38.076Z,99387.84
2023-03-11T12:25:37.618Z,99377.81
2023-03-11T12:28:17.297Z,99396.69
2023-03-11T12:30:50.499Z,99384.63
2023-03-11T12:33:26.379Z,99379.78
2023-03-11T12:35:56.606Z,99383.66
2023-03-11T12:38:32.465Z,99381.53
2023-03-11T12:41:07.634Z,99366.34
2023-03-11T12:43:59.295Z,99373.84
2023-03-11T12:47:01.886Z,99377.34
2023-03-11T12:49:31.703Z,99371.69
2023-03-11T12:52:04.745Z,99344.34
2023-03-11T12:54:34.701Z,99372.97
2023-03-11T12:57:09.420Z,99369.03
2023-03-11T12:59:54.969Z,99346.44
2023-03-11T13:02:36.471Z,99362.66
2023-03-11T13:05:15.579Z,99367.22
2023-03-11T13:07:49.325Z,99351.94
2023-03-11T13:10:35.917Z,99368.09
2023-03-11T13:13:24.340Z,99366.63
2023-03-11T13:15:52.565Z,99344.13
2023-03-11T13:18:24.757Z,99354.03
2023-03-11T13:20:57.700Z,99354.41
2023-03-11T13:23:31.481Z,99359.16
2023-03-11T13:26:31.793Z,99351.41
2023-03-11T13:29:42.674Z,99240.56
2023-03-11T13:32:52.099Z,99204.28
2023-03-11T13:35:34.929Z,99328.69
2023-03-11T13:38:20.033Z,99336.34
2023-03-11T13:40:48.305Z,99348.00
2023-03-11T13:43:18.777Z,99349.78
2023-03-11T13:45:54.364Z,99298.13
2023-03-11T13:48:28.260Z,99351.41
2023-03-11T13:51:01.383Z,99346.25
2023-03-11T13:53:33.689Z,99346.19
2023-03-11T13:56:01.770Z,99325.78
2023-03-11T13:58:30.275Z,99350.38
2023-03-11T14:01:01.039Z,99347.56
2023-03-11T14:03:41.770Z,99324.47
2023-03-11T14:06:14.485Z,99322.41
2023-03-11T14:08:43.076Z,99263.16
2023-03-11T14:11:18.730Z,99336.81
2023-03-11T14:13:48.086Z,99331.28
2023-03-11T14:16:20.960Z,99329.00
2023-03-11T14:18:50.377Z,99273.56
2023-03-11T14:21:20.823Z,99291.06
2023-03-11T14:23:50.594Z,99326.50
2023-03-11T14:26:21.302Z,99318.00
2023-03-11T14:28:52.418Z,99319.00
2023-03-11T14:31:33.013Z,99317.28
2023-03-11T14:34:06.829Z,99267.44
2023-03-11T14:36:44.732Z,99315.50
2023-03-11T14:39:27.697Z,99303.19
2023-03-11T14:41:58.995Z,99312.78
2023-03-11T14:44:28.962Z,99305.75
2023-03-11T14:47:08.048Z,99304.88
2023-03-11T14:49:36.434Z,99305.84
2023-03-11T14:52:11.369Z,99307.66
2023-03-11T14:54:39.733Z,99305.06
2023-03-11T14:57:16.932Z,99312.91
2023-03-11T14:59:46.276Z,99295.41
2023-03-11T15:02:43.643Z,99313.75
2023-03-11T15:05:19.528Z,99318.94
2023-03-11T15:07:48.823Z,99318.03
2023-03-11T15:10:16.750Z,99317.09
2023-03-11T15:12:45.929Z,99321.28
2023-03-11T15:15:26.131Z,99287.78
2023-03-11T15:17:56.572Z,99314.78
2023-03-11T15:20:27.755Z,99220.66
2023-03-11T15:23:01.268Z,99250.16
2023-03-11T15:25:31.785Z,99247.44
2023-03-11T15:27:59.920Z,99318.25
2023-03-11T15:30:29.724Z,99320.91
2023-03-11T15:33:02.520Z,99255.69
2023-03-11T15:35:31.663Z,99320.75
2023-03-11T15:38:21.162Z,99273.00
2023-03-11T15:40:55.211Z,99175.19
2023-03-11T15:43:27.880Z,98945.78
2023-03-11T15:45:58.500Z,99262.59
2023-03-11T15:48:30.050Z,99342.03
2023-03-11T15:51:00.061Z,99322.38
2023-03-11T15:53:29.459Z,99330.50
2023-03-11T15:56:06.945Z,98835.41
2023-03-11T15:58:36.845Z,99012.47
2023-03-11T16:01:05.008Z,99020.91
2023-03-11T16:03:34.527Z,98886.69
2023-03-11T16:06:02.703Z,98587.00
2023-03-11T16:08:30.873Z,98730.00
2023-03-11T16:11:01.589Z,99029.44
2023-03-11T16:13:29.844Z,99348.50
2023-03-11T16:15:57.779Z,99289.09
2023-03-11T16:18:30.474Z,99279.19
2023-03-11T16:21:00.013Z,99263.66
2023-03-11T16:23:44.813Z,99358.66
2023-03-11T16:26:18.616Z,99321.63
2023-03-11T16:28:46.480Z,99333.25
2023-03-11T16:31:14.397Z,99362.38
2023-03-11T16:33:42.677Z,99317.69
2023-03-11T16:36:12.710Z,99306.50
2023-03-11T16:38:46.125Z,99365.47
2023-03-11T16:41:15.928Z,99327.66
2023-03-11T16:43:44.523Z,99373.47
2023-03-11T16:46:12.601Z,99373.81
2023-03-11T16:48:40.489Z,99375.75
2023-03-11T16:51:08.439Z,99380.44
2023-03-11T16:53:37.920Z,99376.75
2023-03-11T16:56:06.780Z,99383.34
2023-03-11T16:58:34.598Z,99371.63
2023-03-11T17:01:02.680Z,99284.63
2023-03-11T17:03:37.706Z,99322.75
2023-03-11T17:06:11.002Z,99359.50
2023-03-11T17:08:40.207Z,99382.00
2023-03-11T17:11:16.095Z,99378.13
2023-03-11T17:13:43.986Z,99381.09
2023-03-11T17:16:11.885Z,99383.34
2023-03-11T17:18:39.915Z,99376.28
2023-03-11T17:21:08.739Z,99370.66
2023-03-11T17:23:37.098Z,99375.53
2023-03-11T17:26:11.130Z,99382.19
2023-03-11T17:28:40.157Z,99380.50
2023-03-11T17:31:12.525Z,99351.28
2023-03-11T17:33:40.512Z,99375.03
2023-03-11T17:36:10.861Z,99325.47
2023-03-11T17:38:38.859Z,99365.31
2023-03-11T17:41:12.659Z,99365.00
2023-03-11T17:43:41.835Z,99365.44
2023-03-11T17:46:12.405Z,99361.59
2023-03-11T17:48:40.296Z,99357.00
2023-03-11T17:51:10.254Z,99381.59
2023-03-11T17:53:39.026Z,99329.66
2023-03-11T17:56:08.048Z,99358.00
2023-03-11T17:58:37.445Z,99339.38
2023-03-11T18:01:07.706Z,99347.09
2023-03-11T18:03:35.969Z,99338.97
2023-03-11T18:06:09.374Z,99371.75
2023-03-11T18:08:38.144Z,99350.28
2023-03-11T18:11:08.436Z,99349.13
2023-03-11T18:13:39.051Z,99351.63
2023-03-11T18:16:09.288Z,99349.75
2023-03-11T18:18:38.156Z,99337.72
2023-03-11T18:21:08.385Z,99331.13
2023-03-11T18:23:36.548Z,99311.69
2023-03-11T18:26:07.433Z,99324.84
2023-03-11T18:28:37.441Z,99343.31
2023-03-11T18:31:08.962Z,99340.56
2023-03-11T18:33:37.592Z,99343.06
2023-03-11T18:36:13.696Z,99339.50
2023-03-11T18:38:41.725Z,99337.66
2023-03-11T18:41:09.596Z,99311.94
2023-03-11T18:43:39.459Z,99319.47
2023-03-11T18:46:09.511Z,99325.28
2023-03-11T18:48:37.936Z,99329.53
2023-03-11T18:51:07.203Z,99232.28
2023-03-11T18:53:35.636Z,99321.59
2023-03-11T18:56:05.626Z,99316.09
2023-03-11T18:58:34.531Z,99254.16
2023-03-11T19:01:12.443Z,99253.03
2023-03-11T19:03:40.588Z,99323.53
2023-03-11T19:06:09.341Z,99313.09
2023-03-11T19:08:37.306Z,99272.72
2023-03-11T19:11:07.637Z,99320.34
2023-03-11T19:13:46.179Z,99328.66
2023-03-11T19:16:18.910Z,99321.56
2023-03-11T19:18:47.541Z,99318.84
2023-03-11T19:21:17.096Z,99317.88
2023-03-11T19:23:45.763Z,99327.06
2023-03-11T19:26:14.143Z,99313.97
2023-03-11T19:28:42.096Z,99264.91
2023-03-11T19:31:10.066Z,99314.41
2023-03-11T19:33:39.490Z,99306.53
2023-03-11T19:36:08.785Z,99304.59
2023-03-11T19:38:37.046Z,99305.28
2023-03-11T19:41:06.649Z,99298.31
2023-03-11T19:43:35.625Z,99305.09
2023-03-11T19:46:03.898Z,99317.81
2023-03-11T19:48:32.200Z,99295.56
2023-03-11T19:51:02.358Z,99292.38
2023-03-11T19:53:30.527Z,99291.06
2023-03-11T19:55:59.165Z,99281.94
2023-03-11T19:58:30.438Z,99237.06
2023-03-11T20:00:58.889Z,99294.13
2023-03-11T20:03:27.430Z,99291.50
2023-03-11T20:05:58.049Z,99286.19
2023-03-11T20:08:27.781Z,99286.00
2023-03-11T20:10:55.706Z,99281.59
2023-03-11T20:13:23.916Z,99123.09
2023-03-11T20:15:51.996Z,99255.06
2023-03-11T20:18:20.039Z,99276.38
2023-03-11T20:20:47.909Z,99272.94
2023-03-11T20:23:16.364Z,99277.06
2023-03-11T20:25:45.568Z,99265.84
2023-03-11T20:28:13.540Z,99272.66
2023-03-11T20:30:41.553Z,99269.22
2023-03-11T20:33:09.473Z,99264.78
2023-03-11T20:35:37.528Z,99228.47
2023-03-11T20:38:05.770Z,99271.50
2023-03-11T20:40:33.887Z,99271.41
2023-03-11T20:43:03.443Z,99242.06
2023-03-11T20:45:31.715Z,99263.44
2023-03-11T20:47:59.704Z,99266.63
2023-03-11T20:50:27.579Z,99269.00
2023-03-11T20:52:55.585Z,99259.00
2023-03-11T20:55:23.759Z,99233.63
2023-03-11T20:57:51.720Z,99270.19
2023-03-11T21:00:22.380Z,99265.59
2023-03-11T21:02:50.717Z,99261.56
2023-03-11T21:05:18.877Z,99265.59
2023-03-11T21:07:49.265Z,99264.44
2023-03-11T21:10:17.443Z,99256.56
2023-03-11T21:12:45.401Z,99253.53
2023-03-11T21:15:14.009Z,99254.53
2023-03-11T21:17:43.318Z,99250.09
2023-03-11T21:20:13.247Z,99231.25
2023-03-11T21:22:41.241Z,99252.97
2023-03-11T21:25:10.027Z,99244.31
2023-03-11T21:27:38.017Z,99243.94
2023-03-11T21:30:06.902Z,99236.88
2023-03-11T21:32:34.923Z,99235.72
2023-03-11T21:35:05.122Z,99232.97
2023-03-11T21:37:33.419Z,99237.88
2023-03-11T21:40:01.385Z,99164.66
2023-03-11T21:42:30.557Z,99229.84
2023-03-11T21:44:58.784Z,99234.75
2023-03-11T21:47:26.699Z,99229.34
2023-03-11T21:49:54.734Z,99203.91
2023-03-11T21:52:24.270Z,99156.94
2023-03-11T21:54:52.359Z,99166.25
2023-03-11T21:57:20.295Z,99219.34
2023-03-11T21:59:48.672Z,99210.94
2023-03-11T22:02:18.186Z,99219.84
2023-03-11T22:04:46.229Z,99199.34
2023-03-11T22:07:14.522Z,99217.88
2023-03-11T22:09:43.800Z,99215.22
2023-03-11T22:12:11.690Z,99205.94
2023-03-11T22:14:39.699Z,99222.53
2023-03-11T22:17:07.891Z,99217.22
2023-03-11T22:19:35.909Z,99211.53
2023-03-11T22:22:04.060Z,99221.94
2023-03-11T22:24:32.032Z,99220.88
2023-03-11T22:27:01.307Z,99219.09
2023-03-11T22:29:29.282Z,99214.78
2023-03-11T22:31:57.275Z,99204.38
2023-03-11T22:34:25.253Z,99159.19
2023-03-11T22:36:53.278Z,99202.50
2023-03-11T22:39:21.260Z,99145.63
2023-03-11T22:41:49.175Z,99205.63
2023-03-11T22:44:18.481Z,99203.00
2023-03-11T22:46:46.489Z,99204.56
2023-03-11T22:49:14.363Z,99179.91
2023-03-11T22:51:42.368Z,99195.81
2023-03-11T22:54:10.368Z,99193.16
2023-03-11T22:56:38.387Z,99195.63
2023-03-11T22:59:06.441Z,99159.78
2023-03-11T23:01:36.054Z,99192.78
2023-03-11T23:04:03.981Z,99199.66
2023-03-11T23:06:31.936Z,99172.34
2023-03-11T23:09:00.398Z,99188.56
2023-03-11T23:11:28.245Z,99204.84
2023-03-11T23:13:56.916Z,99211.53
2023-03-11T23:16:26.357Z,99198.56
2023-03-11T23:18:57.474Z,99197.88
2023-03-11T23:21:27.082Z,99151.66
2023-03-11T23:23:55.382Z,99198.56
2023-03-11T23:26:23.831Z,99193.56
2023-03-11T23:28:52.218Z,99181.19
2023-03-11T23:31:21.901Z,99186.69
2023-03-11T23:33:50.160Z,99119.56
2023-03-11T23:36:21.309Z,99194.72
2023-03-11T23:38:49.823Z,99115.53
2023-03-11T23:41:19.760Z,99194.94
2023-03-11T23:43:47.619Z,99192.28
2023-03-11T23:46:15.720Z,99194.81
2023-03-11T23:48:43.976Z,99189.53
2023-03-11T23:51:11.837Z,99189.53
2023-03-11T23:53:41.531Z,99151.34
2023-03-11T23:56:11.718Z,99195.41
2023-03-11T23:58:39.731Z,99183.03
